Time;durP1;ratioP1;P1;durP2;ratioP2;P2;SDS_P1;SDS_P2;PMS_P1;PMS_P2;Temp;Humidity;BMP_temperature;BMP_pressure;BME280_temperature;BME280_humidity;BME280_pressure;Samples;Min_cycle;Max_cycle;Signal;HPM_P1;HPM_P2
2024/01/08 00:01:32;;;;;;;2.30;2.10;;;-1.50;38.70;;;;;;5058614;28;20071;-64
2024/01/08 00:03:58;;;;;;;5.10;2.67;;;-1.50;36.50;;;;;;5079907;28;20047;-63
2024/01/08 00:06:24;;;;;;;6.78;3.00;;;-1.50;39.70;;;;;;5081716;28;20063;-63
2024/01/08 00:08:50;;;;;;;4.57;2.22;;;-1.50;39.60;;;;;;5080444;28;20117;-63
2024/01/08 00:11:16;;;;;;;2.85;2.30;;;-1.50;39.30;;;;;;5076707;28;20082;-63
2024/01/08 00:13:42;;;;;;;3.05;2.70;;;-1.50;39.50;;;;;;5060903;28;20036;-63
2024/01/08 00:16:08;;;;;;;4.22;2.50;;;-1.50;39.10;;;;;;5054888;28;20037;-64
2024/01/08 00:18:33;;;;;;;5.72;1.88;;;-1.50;39.30;;;;;;5060407;28;20375;-63
2024/01/08 00:21:02;;;;;;;7.07;2.80;;;-1.50;41.30;;;;;;5062521;28;20111;-63
2024/01/08 00:23:29;;;;;;;4.53;2.05;;;-1.60;41.50;;;;;;5043391;28;20080;-63
2024/01/08 00:25:55;;;;;;;5.30;2.60;;;-1.60;43.40;;;;;;5070871;28;20051;-63
2024/01/08 00:28:21;;;;;;;5.07;2.85;;;-1.60;45.70;;;;;;5066640;28;20378;-63
2024/01/08 00:30:46;;;;;;;2.67;2.22;;;-1.60;46.30;;;;;;5047100;28;20044;-63
2024/01/08 00:33:12;;;;;;;3.80;2.50;;;-1.60;49.20;;;;;;5086559;28;20048;-62
2024/01/08 00:35:38;;;;;;;3.92;2.65;;;-1.50;53.60;;;;;;5074332;28;20124;-64
2024/01/08 00:38:03;;;;;;;7.25;2.63;;;-1.50;56.80;;;;;;5069317;28;20459;-64
2024/01/08 00:40:32;;;;;;;2.47;2.25;;;-1.40;60.20;;;;;;5029956;28;20040;-63
2024/01/08 00:42:57;;;;;;;4.18;2.47;;;-1.40;58.60;;;;;;5066087;28;20105;-63
2024/01/08 00:45:23;;;;;;;6.93;3.05;;;-1.30;58.40;;;;;;5065407;28;20044;-63
2024/01/08 00:47:49;;;;;;;9.35;2.65;;;-1.30;54.00;;;;;;5045089;28;20402;-63
2024/01/08 00:50:16;;;;;;;5.10;3.17;;;-1.30;54.60;;;;;;5051559;28;20040;-63
2024/01/08 00:52:41;;;;;;;5.80;3.10;;;-1.30;50.10;;;;;;5075140;28;20436;-63
2024/01/08 00:55:08;;;;;;;2.75;2.45;;;-1.20;54.40;;;;;;5068993;28;20033;-63
2024/01/08 00:57:34;;;;;;;5.00;2.58;;;-1.20;57.30;;;;;;5064998;28;20097;-63
2024/01/08 01:00:00;;;;;;;4.28;3.00;;;-1.20;60.20;;;;;;5065743;28;20123;-63
2024/01/08 01:02:26;;;;;;;2.63;2.17;;;-1.10;63.40;;;;;;5066385;28;20075;-63
2024/01/08 01:04:51;;;;;;;5.88;3.05;;;-1.10;63.70;;;;;;5065062;28;20502;-63
2024/01/08 01:07:17;;;;;;;7.25;2.88;;;-1.10;62.00;;;;;;5052958;28;20132;-63
2024/01/08 01:09:43;;;;;;;4.97;2.85;;;-1.10;61.00;;;;;;5059172;28;20115;-63
2024/01/08 01:12:09;;;;;;;4.45;2.90;;;-1.10;55.50;;;;;;5074898;28;20036;-64
2024/01/08 01:14:35;;;;;;;4.53;3.10;;;-1.00;55.00;;;;;;5064258;28;20051;-64
2024/01/08 01:17:01;;;;;;;4.65;3.38;;;-1.00;59.00;;;;;;5065182;28;20040;-64
2024/01/08 01:19:27;;;;;;;3.30;2.92;;;-1.00;60.10;;;;;;5078842;28;20076;-63
2024/01/08 01:21:53;;;;;;;4.47;3.00;;;-1.00;61.40;;;;;;5030376;28;20819;-63
2024/01/08 01:24:19;;;;;;;4.40;2.60;;;-1.00;65.00;;;;;;5046833;28;20124;-63
2024/01/08 01:26:44;;;;;;;3.85;2.97;;;-1.00;64.10;;;;;;5046264;28;20123;-63
2024/01/08 01:29:11;;;;;;;3.38;2.63;;;-1.00;65.90;;;;;;5076106;28;20047;-63
2024/01/08 01:31:36;;;;;;;5.38;2.28;;;-0.90;69.70;;;;;;5073416;28;20532;-63
2024/01/08 01:34:04;;;;;;;4.38;2.75;;;-1.00;70.60;;;;;;5076318;28;20072;-63
2024/01/08 01:36:34;;;;;;;7.28;3.30;;;-0.90;69.30;;;;;;5062789;28;20051;-63
2024/01/08 01:39:06;;;;;;;7.82;2.40;;;-0.90;70.00;;;;;;5070117;28;20043;-63
2024/01/08 01:41:32;;;;;;;6.82;4.03;;;-0.80;74.00;;;;;;5069587;28;20052;-63
2024/01/08 01:43:58;;;;;;;4.63;2.85;;;-0.80;76.60;;;;;;5046118;28;20585;-64
2024/01/08 01:46:45;;;;;;;5.32;3.13;;;-0.80;76.20;;;;;;5072954;28;20044;-64
2024/01/08 01:49:13;;;;;;;5.70;2.90;;;-0.80;77.70;;;;;;5065374;28;20059;-63
2024/01/08 01:51:41;;;;;;;3.42;3.13;;;-0.80;79.90;;;;;;5065674;28;20801;-63
2024/01/08 01:54:09;;;;;;;9.57;3.55;;;-0.70;83.10;;;;;;5069290;28;20032;-63
2024/01/08 01:56:36;;;;;;;4.82;3.25;;;-0.80;78.80;;;;;;5072951;28;20048;-63
2024/01/08 01:59:04;;;;;;;5.53;3.38;;;-0.70;79.60;;;;;;5064271;28;20134;-63
2024/01/08 02:01:31;;;;;;;5.38;3.63;;;-0.70;79.20;;;;;;5076815;28;20507;-63
2024/01/08 02:03:57;;;;;;;8.30;3.97;;;-0.70;79.30;;;;;;5080236;28;20055;-63
2024/01/08 02:06:26;;;;;;;8.00;3.67;;;-0.70;77.90;;;;;;5062151;28;20049;-63
2024/01/08 02:08:53;;;;;;;7.07;3.15;;;-0.70;77.20;;;;;;5045726;28;20206;-63
2024/01/08 02:11:19;;;;;;;7.32;3.17;;;-0.60;76.60;;;;;;5056306;28;20048;-63
2024/01/08 02:13:47;;;;;;;9.48;3.42;;;-0.60;79.70;;;;;;5063708;28;20237;-63
2024/01/08 02:16:14;;;;;;;4.30;2.95;;;-0.60;77.30;;;;;;5045343;28;20531;-63
2024/01/08 02:18:40;;;;;;;2.83;1.98;;;-0.60;76.30;;;;;;5045078;28;20052;-63
2024/01/08 02:21:08;;;;;;;4.20;2.88;;;-0.70;77.50;;;;;;5067215;28;20044;-63
2024/01/08 02:23:34;;;;;;;5.20;3.28;;;-0.60;76.30;;;;;;5068756;28;20106;-63
2024/01/08 02:26:00;;;;;;;5.38;3.53;;;-0.70;77.40;;;;;;5044731;28;20126;-63
2024/01/08 02:28:26;;;;;;;6.18;3.00;;;-0.60;76.80;;;;;;5061815;28;20052;-63
2024/01/08 02:30:52;;;;;;;4.90;2.88;;;-0.60;75.30;;;;;;5064209;28;20063;-63
2024/01/08 02:33:18;;;;;;;3.72;3.28;;;-0.60;73.10;;;;;;5080484;28;20052;-63
2024/01/08 02:35:44;;;;;;;6.35;2.78;;;-0.60;73.70;;;;;;5071490;28;20055;-63
2024/01/08 02:38:10;;;;;;;6.70;3.92;;;-0.60;73.20;;;;;;5044458;28;20120;-63
2024/01/08 02:40:35;;;;;;;4.75;3.08;;;-0.60;72.50;;;;;;5061983;28;20120;-63
2024/01/08 02:43:01;;;;;;;6.65;3.42;;;-0.60;64.70;;;;;;5040652;28;20322;-63
2024/01/08 02:45:27;;;;;;;7.47;2.22;;;-0.60;62.90;;;;;;5061759;28;20520;-64
2024/01/08 02:47:52;;;;;;;4.88;3.08;;;-0.60;59.50;;;;;;5067492;28;20098;-63
2024/01/08 02:50:18;;;;;;;4.90;2.95;;;-0.60;61.40;;;;;;5043412;28;20091;-63
2024/01/08 02:52:44;;;;;;;4.70;2.65;;;-0.60;59.20;;;;;;5068623;28;20042;-63
2024/01/08 02:55:10;;;;;;;6.22;2.80;;;-0.60;58.10;;;;;;5064278;28;20041;-63
2024/01/08 02:57:36;;;;;;;7.40;2.78;;;-0.60;55.90;;;;;;5044364;28;20390;-63
2024/01/08 03:00:04;;;;;;;7.13;2.80;;;-0.60;55.00;;;;;;5044467;28;20052;-63
2024/01/08 03:02:31;;;;;;;6.35;3.47;;;-0.60;55.60;;;;;;5037775;28;1112062;-63
2024/01/08 03:04:57;;;;;;;3.88;2.90;;;-0.70;51.70;;;;;;5074974;28;20454;-63
2024/01/08 03:07:23;;;;;;;5.68;3.03;;;-0.60;53.30;;;;;;5078768;28;20120;-63
2024/01/08 03:09:49;;;;;;;2.60;2.10;;;-0.60;56.80;;;;;;5086958;28;20577;-63
2024/01/08 03:12:15;;;;;;;7.63;2.85;;;-0.60;59.30;;;;;;5081692;28;20588;-63
2024/01/08 03:14:41;;;;;;;4.70;2.53;;;-0.70;57.80;;;;;;5082706;28;20094;-63
2024/01/08 03:17:07;;;;;;;7.97;2.83;;;-0.60;56.90;;;;;;5095825;28;20062;-62
2024/01/08 03:19:32;;;;;;;2.75;2.53;;;-0.70;56.30;;;;;;5063653;28;20048;-63
2024/01/08 03:22:01;;;;;;;4.75;2.70;;;-0.70;58.00;;;;;;5083330;28;20084;-64
2024/01/08 03:24:26;;;;;;;6.43;2.70;;;-0.70;59.60;;;;;;5063175;28;20084;-63
2024/01/08 03:26:52;;;;;;;7.57;3.10;;;-0.70;59.50;;;;;;5065472;28;20365;-63
2024/01/08 03:29:18;;;;;;;6.35;2.60;;;-0.80;58.00;;;;;;5058180;28;20062;-63
2024/01/08 03:31:47;;;;;;;4.80;2.88;;;-0.70;54.90;;;;;;5082368;28;20047;-63
2024/01/08 03:34:14;;;;;;;4.18;3.17;;;-0.80;56.90;;;;;;5063677;28;20043;-63
2024/01/08 03:36:45;;;;;;;2.88;2.10;;;-0.70;56.20;;;;;;5082465;28;20049;-63
2024/01/08 03:39:12;;;;;;;4.60;2.33;;;-0.70;52.30;;;;;;5083119;28;20047;-63
2024/01/08 03:41:39;;;;;;;4.28;2.40;;;-0.80;38.00;;;;;;5081532;28;20040;-63
2024/01/08 03:44:06;;;;;;;3.20;1.80;;;-0.80;33.50;;;;;;5081889;28;20052;-63
2024/01/08 03:46:32;;;;;;;2.20;1.88;;;-0.80;28.60;;;;;;5082002;28;20618;-63
2024/01/08 03:48:57;;;;;;;4.80;1.98;;;-0.90;26.50;;;;;;5083322;28;20123;-63
2024/01/08 03:51:23;;;;;;;2.65;1.58;;;-0.80;23.20;;;;;;5082210;28;20048;-63
2024/01/08 03:53:49;;;;;;;2.40;1.95;;;-0.80;25.20;;;;;;5082249;28;20541;-63
2024/01/08 03:56:15;;;;;;;3.20;1.95;;;-0.80;24.50;;;;;;5082005;28;20044;-63
2024/01/08 03:58:40;;;;;;;2.88;2.00;;;-0.90;26.30;;;;;;5062913;28;20044;-63
2024/01/08 04:01:06;;;;;;;3.05;2.10;;;-0.90;24.70;;;;;;5080559;28;20120;-63
2024/01/08 04:03:32;;;;;;;4.00;2.00;;;-0.90;27.20;;;;;;5081161;28;20537;-63
2024/01/08 04:05:58;;;;;;;2.03;1.92;;;-0.90;26.60;;;;;;5082017;28;20126;-63
2024/01/08 04:08:23;;;;;;;3.70;1.67;;;-0.90;27.50;;;;;;5061848;28;20044;-63
2024/01/08 04:10:49;;;;;;;3.92;2.40;;;-0.90;27.20;;;;;;5062212;28;20052;-63
2024/01/08 04:13:15;;;;;;;2.70;1.95;;;-1.00;26.30;;;;;;5062145;28;20135;-63
2024/01/08 04:15:40;;;;;;;4.88;2.20;;;-1.10;26.80;;;;;;5062081;28;20064;-63
2024/01/08 04:18:06;;;;;;;1.83;1.70;;;-1.10;28.80;;;;;;5062200;28;20040;-63
2024/01/08 04:20:32;;;;;;;2.45;2.08;;;-1.20;29.70;;;;;;5042943;28;20414;-63
2024/01/08 04:22:57;;;;;;;5.63;2.55;;;-1.20;33.00;;;;;;5062747;28;20048;-63
2024/01/08 04:25:23;;;;;;;7.70;2.10;;;-1.30;34.60;;;;;;5060244;28;20441;-63
2024/01/08 04:27:49;;;;;;;4.55;2.15;;;-1.30;36.70;;;;;;5075353;28;20048;-63
2024/01/08 04:30:15;;;;;;;3.88;1.88;;;-1.30;42.10;;;;;;5061806;28;20486;-63
2024/01/08 04:32:40;;;;;;;3.10;2.15;;;-1.30;39.30;;;;;;5062130;28;20406;-64
2024/01/08 04:35:06;;;;;;;3.60;1.80;;;-1.40;40.50;;;;;;5044339;28;20440;-63
2024/01/08 04:37:33;;;;;;;2.53;1.42;;;-1.40;44.40;;;;;;5042734;28;20049;-63
2024/01/08 04:39:59;;;;;;;3.63;2.15;;;-1.50;46.00;;;;;;5044805;28;20040;-63
2024/01/08 04:42:25;;;;;;;1.98;1.60;;;-1.50;45.30;;;;;;5050180;28;20052;-63
2024/01/08 04:44:50;;;;;;;3.08;1.63;;;-1.50;41.80;;;;;;5044353;28;20064;-63
2024/01/08 04:47:16;;;;;;;5.10;2.70;;;-1.50;43.50;;;;;;5060576;28;20055;-64
2024/01/08 04:49:42;;;;;;;2.17;1.98;;;-1.50;45.70;;;;;;5061542;28;20044;-63
2024/01/08 04:52:08;;;;;;;10.98;2.28;;;-1.50;44.70;;;;;;5066069;28;20040;-63
2024/01/08 04:54:33;;;;;;;3.38;1.83;;;-1.40;47.70;;;;;;5061386;28;20292;-63
2024/01/08 04:56:59;;;;;;;5.63;1.83;;;-1.50;50.40;;;;;;5062517;28;20037;-63
2024/01/08 04:59:25;;;;;;;7.10;2.08;;;-1.50;53.90;;;;;;5060147;28;20048;-63
2024/01/08 05:01:51;;;;;;;5.97;2.40;;;-1.50;57.20;;;;;;5070454;28;20051;-63
2024/01/08 05:04:17;;;;;;;3.60;2.78;;;-1.50;61.70;;;;;;5071116;28;20898;-63
2024/01/08 05:06:44;;;;;;;8.68;2.67;;;-1.50;65.20;;;;;;5062208;28;20045;-63
2024/01/08 05:09:10;;;;;;;4.93;2.63;;;-1.50;71.20;;;;;;5063984;28;20044;-63
2024/01/08 05:11:36;;;;;;;4.53;2.50;;;-1.50;72.80;;;;;;5073253;28;20048;-63
2024/01/08 05:14:04;;;;;;;3.22;2.63;;;-1.50;76.00;;;;;;5082548;28;20181;-63
2024/01/08 05:16:29;;;;;;;3.72;2.65;;;-1.50;76.30;;;;;;5064351;28;20444;-63
2024/01/08 05:18:55;;;;;;;8.52;2.13;;;-1.50;78.30;;;;;;5066031;28;20037;-63
2024/01/08 05:21:21;;;;;;;6.30;2.13;;;-1.50;80.60;;;;;;5051105;28;20532;-63
2024/01/08 05:23:47;;;;;;;10.23;2.60;;;-1.40;82.00;;;;;;5056409;28;20050;-63
2024/01/08 05:26:13;;;;;;;6.75;2.42;;;-1.50;83.70;;;;;;5046066;28;20828;-63
2024/01/08 05:28:39;;;;;;;4.53;2.60;;;-1.50;87.70;;;;;;5065356;28;20082;-63
2024/01/08 05:31:04;;;;;;;5.80;2.55;;;-1.50;88.20;;;;;;5067657;28;20143;-63
2024/01/08 05:33:30;;;;;;;5.65;2.25;;;-1.50;90.20;;;;;;5058238;28;20036;-63
2024/01/08 05:35:56;;;;;;;5.75;2.25;;;-1.50;89.70;;;;;;5065410;28;20083;-63
2024/01/08 05:38:22;;;;;;;3.17;2.25;;;-1.50;89.00;;;;;;5050980;28;20055;-63
2024/01/08 05:40:49;;;;;;;7.88;2.17;;;-1.50;92.60;;;;;;5067602;28;20048;-63
2024/01/08 05:43:15;;;;;;;4.38;2.40;;;-1.40;94.50;;;;;;5047550;28;20052;-63
2024/01/08 05:45:41;;;;;;;5.05;2.20;;;-1.40;95.00;;;;;;5047110;28;20079;-63
2024/01/08 05:48:07;;;;;;;6.28;1.52;;;-1.40;96.80;;;;;;5046383;28;20049;-63
2024/01/08 05:50:32;;;;;;;6.20;2.42;;;-1.30;98.50;;;;;;5063814;28;20121;-64
2024/01/08 05:53:00;;;;;;;9.65;2.45;;;-1.30;98.70;;;;;;5065235;28;20087;-64
2024/01/08 05:55:26;;;;;;;9.95;2.25;;;-1.20;98.90;;;;;;5062865;28;20119;-63
2024/01/08 05:57:52;;;;;;;7.30;2.97;;;-1.20;97.80;;;;;;5065196;28;20155;-63
2024/01/08 06:00:18;;;;;;;8.10;1.85;;;-1.20;99.00;;;;;;5063089;28;20094;-63
2024/01/08 06:02:43;;;;;;;6.47;2.08;;;-1.10;99.00;;;;;;5079192;28;20055;-63
2024/01/08 06:05:09;;;;;;;7.25;2.47;;;-1.10;98.10;;;;;;5083488;28;20393;-63
2024/01/08 06:07:36;;;;;;;5.63;2.97;;;-1.10;98.60;;;;;;5084643;28;20509;-63
2024/01/08 06:10:02;;;;;;;5.93;2.53;;;-1.10;98.00;;;;;;5084403;28;20451;-63
2024/01/08 06:12:29;;;;;;;3.80;2.45;;;-1.10;99.70;;;;;;5064688;28;20044;-63
2024/01/08 06:14:55;;;;;;;4.13;2.50;;;-1.10;99.90;;;;;;5084029;28;20091;-63
2024/01/08 06:17:21;;;;;;;4.47;2.60;;;-1.10;99.90;;;;;;5081844;28;20574;-64
2024/01/08 06:19:48;;;;;;;5.97;3.17;;;-1.10;99.90;;;;;;5084685;28;20409;-63
2024/01/08 06:22:14;;;;;;;6.55;2.40;;;-1.00;99.90;;;;;;5083661;28;20062;-63
2024/01/08 06:24:40;;;;;;;5.90;2.65;;;-1.00;99.90;;;;;;5065046;28;20054;-63
2024/01/08 06:27:06;;;;;;;6.50;2.28;;;-1.00;99.90;;;;;;5084722;28;20039;-64
2024/01/08 06:29:32;;;;;;;5.05;2.47;;;-1.00;99.90;;;;;;5081922;28;20044;-64
2024/01/08 06:31:58;;;;;;;3.67;2.00;;;-1.00;99.90;;;;;;5093396;28;20039;-63
2024/01/08 06:34:24;;;;;;;5.55;2.30;;;-1.00;99.90;;;;;;5086594;28;20052;-63
2024/01/08 06:36:49;;;;;;;5.43;2.33;;;-1.00;99.90;;;;;;5083577;28;20044;-64
2024/01/08 06:39:15;;;;;;;9.32;2.53;;;-1.00;99.90;;;;;;5082950;28;20402;-63
2024/01/08 06:41:41;;;;;;;5.28;2.20;;;-0.90;99.90;;;;;;5082848;28;20040;-63
2024/01/08 06:44:07;;;;;;;3.25;2.42;;;-0.90;99.90;;;;;;5065171;28;20040;-63
2024/01/08 06:46:32;;;;;;;4.82;2.95;;;-0.90;99.90;;;;;;5064920;28;20044;-64
2024/01/08 06:48:58;;;;;;;8.15;2.83;;;-0.90;99.90;;;;;;5066409;28;20075;-63
2024/01/08 06:51:24;;;;;;;4.93;2.47;;;-0.90;99.90;;;;;;5081291;28;20555;-63
2024/01/08 06:53:49;;;;;;;8.50;2.90;;;-0.90;99.90;;;;;;5084322;28;20044;-63
2024/01/08 06:56:15;;;;;;;5.68;2.35;;;-0.80;99.90;;;;;;5063966;28;20055;-64
2024/01/08 06:58:41;;;;;;;5.15;2.58;;;-0.80;99.90;;;;;;5048809;28;20086;-64
2024/01/08 07:01:07;;;;;;;11.77;3.35;;;-0.80;99.90;;;;;;5079065;28;20501;-63
2024/01/08 07:03:33;;;;;;;3.67;2.08;;;-0.70;99.90;;;;;;5082846;28;20056;-63
2024/01/08 07:05:59;;;;;;;6.03;2.03;;;-0.70;99.90;;;;;;5082597;28;20051;-63
2024/01/08 07:08:26;;;;;;;3.88;2.20;;;-0.70;99.90;;;;;;5079948;28;20040;-64
2024/01/08 07:10:52;;;;;;;5.93;2.78;;;-0.70;99.90;;;;;;5080772;28;20275;-63
2024/01/08 07:13:18;;;;;;;2.85;1.63;;;-0.60;99.90;;;;;;5056873;28;20456;-63
2024/01/08 07:15:47;;;;;;;12.35;2.28;;;-0.60;99.90;;;;;;5033955;28;20037;-63
2024/01/08 07:18:13;;;;;;;6.65;2.22;;;-0.60;99.90;;;;;;5056777;28;20475;-63
2024/01/08 07:20:40;;;;;;;5.65;2.17;;;-0.60;99.90;;;;;;5045050;28;20497;-64
2024/01/08 07:23:11;;;;;;;9.07;2.55;;;-0.50;99.90;;;;;;5076745;28;20032;-63
2024/01/08 07:25:38;;;;;;;5.15;1.85;;;-0.50;99.90;;;;;;5064148;28;20077;-63
2024/01/08 07:28:08;;;;;;;6.50;2.40;;;-0.50;99.90;;;;;;5064773;28;20486;-63
2024/01/08 07:30:35;;;;;;;7.47;1.98;;;-0.50;99.90;;;;;;5043511;28;20052;-63
2024/01/08 07:33:01;;;;;;;11.82;2.45;;;-0.50;99.90;;;;;;5059926;28;20067;-63
2024/01/08 07:35:27;;;;;;;7.05;2.33;;;-0.50;99.90;;;;;;5053820;28;20520;-63
2024/01/08 07:37:55;;;;;;;5.72;1.98;;;-0.50;99.90;;;;;;5079031;28;20062;-63
2024/01/08 07:40:23;;;;;;;4.05;1.98;;;-0.40;99.90;;;;;;5059686;28;20082;-63
2024/01/08 07:42:49;;;;;;;7.22;2.20;;;-0.40;99.90;;;;;;5049679;28;20178;-63
2024/01/08 07:45:15;;;;;;;8.55;2.28;;;-0.40;99.90;;;;;;5063888;28;20537;-63
2024/01/08 07:47:41;;;;;;;10.65;1.88;;;-0.40;99.90;;;;;;5071976;28;20036;-63
2024/01/08 07:50:08;;;;;;;4.40;2.08;;;-0.40;99.90;;;;;;5064860;28;20051;-63
2024/01/08 07:52:34;;;;;;;4.32;1.85;;;-0.30;99.90;;;;;;5061079;28;20052;-63
2024/01/08 07:54:59;;;;;;;4.97;1.77;;;-0.30;99.90;;;;;;5072415;28;20051;-63
2024/01/08 07:57:25;;;;;;;4.65;1.90;;;-0.30;99.90;;;;;;5055336;28;20098;-63
2024/01/08 07:59:51;;;;;;;8.07;1.83;;;-0.30;99.70;;;;;;5062166;28;20036;-63
2024/01/08 08:02:16;;;;;;;6.95;2.08;;;-0.30;98.70;;;;;;5061861;28;20106;-63
2024/01/08 08:04:42;;;;;;;3.10;1.92;;;-0.20;96.70;;;;;;5080228;28;20106;-63
2024/01/08 08:07:08;;;;;;;3.75;1.60;;;-0.20;97.10;;;;;;5063192;28;20035;-63
2024/01/08 08:09:34;;;;;;;2.13;1.38;;;-0.20;96.20;;;;;;5077089;28;20131;-63
2024/01/08 08:11:59;;;;;;;5.93;1.70;;;-0.20;96.00;;;;;;5076853;28;20076;-64
2024/01/08 08:14:26;;;;;;;4.63;2.00;;;-0.10;95.90;;;;;;5074355;28;20048;-63
2024/01/08 08:16:53;;;;;;;6.97;1.65;;;-0.10;94.00;;;;;;5077609;28;20040;-63
2024/01/08 08:19:18;;;;;;;6.18;1.67;;;-0.10;88.20;;;;;;5079497;28;20045;-63
2024/01/08 08:21:44;;;;;;;7.90;1.90;;;-0.10;86.30;;;;;;5076318;28;20098;-64
2024/01/08 08:24:10;;;;;;;5.10;1.92;;;-0.10;79.30;;;;;;5037408;28;20483;-63
2024/01/08 08:26:35;;;;;;;5.50;2.00;;;-0.10;76.60;;;;;;5075601;28;20072;-63
2024/01/08 08:29:03;;;;;;;6.07;1.77;;;0.00;75.50;;;;;;5076585;28;20040;-63
2024/01/08 08:31:29;;;;;;;2.78;1.73;;;0.00;75.30;;;;;;5080952;28;20042;-63
2024/01/08 08:33:55;;;;;;;3.53;1.40;;;0.00;71.00;;;;;;5047646;28;20036;-63
2024/01/08 08:36:21;;;;;;;9.18;1.90;;;0.10;65.50;;;;;;5081341;28;20406;-63
2024/01/08 08:38:46;;;;;;;3.90;1.60;;;0.10;68.20;;;;;;5061826;28;20048;-63
2024/01/08 08:41:12;;;;;;;5.72;1.65;;;0.10;70.40;;;;;;5064027;28;20105;-63
2024/01/08 08:43:38;;;;;;;7.90;1.70;;;0.10;67.60;;;;;;5080531;28;20398;-63
2024/01/08 08:46:04;;;;;;;7.72;1.83;;;0.10;54.80;;;;;;5064269;28;20393;-63
2024/01/08 08:48:29;;;;;;;10.23;1.73;;;0.10;52.50;;;;;;5065346;28;20047;-63
2024/01/08 08:50:55;;;;;;;4.47;1.50;;;0.10;51.70;;;;;;5066020;28;20509;-63
2024/01/08 08:53:21;;;;;;;3.15;1.33;;;0.10;46.40;;;;;;5066194;28;20131;-63
2024/01/08 08:55:46;;;;;;;7.38;1.85;;;0.10;44.50;;;;;;5086268;28;20085;-63
2024/01/08 08:58:13;;;;;;;3.65;1.73;;;0.20;51.70;;;;;;5062125;28;20055;-63
2024/01/08 09:00:39;;;;;;;4.43;1.60;;;0.10;56.80;;;;;;5084140;28;20040;-63
2024/01/08 09:03:05;;;;;;;2.65;1.63;;;0.20;53.00;;;;;;5058550;28;20055;-63
2024/01/08 09:05:32;;;;;;;4.15;1.35;;;0.20;39.60;;;;;;5063703;28;20044;-63
2024/01/08 09:07:58;;;;;;;10.50;2.00;;;0.20;44.50;;;;;;5065062;28;20610;-64
2024/01/08 09:10:24;;;;;;;3.65;1.30;;;0.20;47.90;;;;;;5064003;28;20540;-63
2024/01/08 09:12:49;;;;;;;4.85;1.65;;;0.20;47.60;;;;;;5014503;28;20064;-63
2024/01/08 09:15:15;;;;;;;10.80;1.88;;;0.20;47.80;;;;;;5060137;28;20094;-63
2024/01/08 09:17:41;;;;;;;3.80;1.67;;;0.20;45.00;;;;;;5048557;28;20041;-63
2024/01/08 09:20:17;;;;;;;5.00;1.88;;;0.20;45.50;;;;;;5045323;28;20037;-63
2024/01/08 09:22:46;;;;;;;2.80;1.50;;;0.20;47.90;;;;;;5057610;28;20256;-63
2024/01/08 09:25:12;;;;;;;4.00;1.35;;;0.20;46.70;;;;;;5048907;28;20044;-63
2024/01/08 09:27:39;;;;;;;6.90;1.27;;;0.20;45.00;;;;;;5061344;28;20503;-63
2024/01/08 09:30:06;;;;;;;5.97;1.58;;;0.20;36.30;;;;;;5065170;28;20063;-63
2024/01/08 09:32:32;;;;;;;4.00;1.85;;;0.20;30.00;;;;;;5062016;28;20446;-63
2024/01/08 09:34:57;;;;;;;3.17;1.80;;;0.20;38.30;;;;;;5064854;28;20048;-63
2024/01/08 09:37:23;;;;;;;4.53;1.75;;;0.20;43.00;;;;;;5064483;28;20037;-63
2024/01/08 09:39:49;;;;;;;3.88;1.33;;;0.30;45.50;;;;;;5062110;28;20048;-63
2024/01/08 09:42:15;;;;;;;7.03;1.77;;;0.20;31.70;;;;;;5065485;28;20049;-63
2024/01/08 09:44:47;;;;;;;7.18;1.60;;;0.20;29.00;;;;;;5063048;28;20134;-63
2024/01/08 09:47:16;;;;;;;3.20;1.98;;;0.30;34.30;;;;;;5063908;28;20043;-63
2024/01/08 09:49:44;;;;;;;3.22;1.55;;;0.30;40.40;;;;;;5062500;28;20040;-63
2024/01/08 09:52:13;;;;;;;3.60;2.08;;;0.30;44.60;;;;;;5071937;28;20067;-63
2024/01/08 09:54:40;;;;;;;6.88;1.63;;;0.30;43.10;;;;;;5071744;28;20045;-62
2024/01/08 09:57:08;;;;;;;10.65;1.85;;;0.30;41.50;;;;;;5063083;28;20502;-63
2024/01/08 09:59:34;;;;;;;4.10;1.48;;;0.30;43.50;;;;;;5052615;28;20060;-63
2024/01/08 10:02:00;;;;;;;5.80;2.10;;;0.30;38.40;;;;;;5056544;28;20513;-63
2024/01/08 10:04:26;;;;;;;5.07;1.88;;;0.30;42.20;;;;;;5063436;28;20477;-63
2024/01/08 10:07:12;;;;;;;5.30;1.80;;;0.30;46.10;;;;;;5060786;28;20041;-63
2024/01/08 10:09:38;;;;;;;3.13;1.83;;;0.30;40.40;;;;;;5063725;28;20056;-63
2024/01/08 10:12:10;;;;;;;4.07;1.73;;;0.40;41.80;;;;;;5051469;28;20094;-63
2024/01/08 10:14:36;;;;;;;2.30;1.60;;;0.40;33.00;;;;;;5042816;28;20513;-63
2024/01/08 10:17:02;;;;;;;3.78;1.90;;;0.40;27.90;;;;;;5044646;28;20507;-63
2024/01/08 10:19:28;;;;;;;3.65;1.73;;;0.50;22.10;;;;;;5046104;28;20394;-63
2024/01/08 10:22:13;;;;;;;5.40;1.50;;;0.50;18.50;;;;;;5054691;28;20123;-63
2024/01/08 10:24:41;;;;;;;8.45;2.00;;;0.50;14.10;;;;;;5043315;28;20139;-63
2024/01/08 10:27:08;;;;;;;3.08;1.42;;;0.50;17.70;;;;;;5057908;28;20037;-63
2024/01/08 10:29:35;;;;;;;3.15;1.50;;;0.50;16.70;;;;;;5060933;28;20077;-63
2024/01/08 10:32:01;;;;;;;2.28;1.65;;;0.60;15.50;;;;;;5052649;28;20049;-63
2024/01/08 10:34:27;;;;;;;4.45;1.80;;;0.70;18.00;;;;;;5059464;28;20147;-63
2024/01/08 10:36:55;;;;;;;2.53;1.50;;;0.80;14.00;;;;;;5061216;28;20032;-63
2024/01/08 10:39:22;;;;;;;2.95;1.67;;;0.80;9.10;;;;;;5061434;28;20048;-63
2024/01/08 10:41:49;;;;;;;2.10;1.48;;;0.80;13.20;;;;;;5061533;28;20514;-63
2024/01/08 10:44:15;;;;;;;3.78;1.40;;;0.80;12.80;;;;;;5051502;28;20044;-64
2024/01/08 10:46:57;;;;;;;3.05;1.50;;;0.70;8.10;;;;;;5055857;28;20372;-62
2024/01/08 10:49:36;;;;;;;4.63;1.80;;;0.70;12.90;;;;;;5055686;28;20044;-63
2024/01/08 10:52:25;;;;;;;5.47;2.15;;;0.70;12.00;;;;;;5035941;28;20452;-63
2024/01/08 10:54:55;;;;;;;2.78;1.50;;;0.60;6.40;;;;;;5042258;28;20499;-62
2024/01/08 10:57:26;;;;;;;3.27;1.80;;;0.60;10.10;;;;;;5058432;28;20043;-63
2024/01/08 10:59:53;;;;;;;2.80;1.50;;;0.70;6.20;;;;;;5061982;28;20121;-62
2024/01/08 11:02:19;;;;;;;3.33;1.45;;;0.70;12.30;;;;;;5062642;28;20139;-63
2024/01/08 11:04:46;;;;;;;4.30;1.42;;;0.70;14.60;;;;;;5065197;28;20104;-63
2024/01/08 11:07:13;;;;;;;1.60;1.50;;;0.60;8.30;;;;;;5081426;28;20032;-63
2024/01/08 11:09:39;;;;;;;2.42;1.50;;;0.60;7.60;;;;;;5082366;28;20516;-62
2024/01/08 11:12:10;;;;;;;2.45;2.22;;;0.60;12.20;;;;;;5069245;28;20505;-63
2024/01/08 11:14:38;;;;;;;5.03;1.90;;;0.70;12.50;;;;;;5062889;28;20100;-62
2024/01/08 11:17:08;;;;;;;3.05;1.35;;;0.80;15.50;;;;;;5063394;28;20044;-63
2024/01/08 11:19:40;;;;;;;4.35;1.75;;;0.80;16.80;;;;;;5069202;28;20051;-62
2024/01/08 11:22:15;;;;;;;3.65;1.63;;;0.80;16.20;;;;;;5063017;28;20457;-62
2024/01/08 11:24:41;;;;;;;2.70;1.77;;;0.80;8.30;;;;;;5061249;28;20059;-63
2024/01/08 11:27:07;;;;;;;1.33;1.23;;;0.80;4.30;;;;;;5063172;28;20052;-63
2024/01/08 11:29:33;;;;;;;1.77;1.35;;;0.80;8.00;;;;;;5044445;28;20448;-63
2024/01/08 11:32:30;;;;;;;3.08;1.63;;;0.80;9.70;;;;;;5052366;28;20036;-62
2024/01/08 11:35:03;;;;;;;4.25;1.00;;;0.80;7.40;;;;;;5044359;28;20121;-62
2024/01/08 11:37:36;;;;;;;2.60;1.05;;;0.90;9.80;;;;;;5043974;28;20052;-63
2024/01/08 11:40:04;;;;;;;3.55;1.42;;;0.90;5.70;;;;;;5062764;28;20049;-62
2024/01/08 11:42:33;;;;;;;1.98;1.38;;;0.90;2.10;;;;;;5062736;28;20128;-62
2024/01/08 11:45:03;;;;;;;2.08;1.23;;;0.90;7.50;;;;;;5060824;28;20040;-62
2024/01/08 11:47:33;;;;;;;2.43;1.17;;;0.80;3.70;;;;;;5071325;28;20055;-63
2024/01/08 11:49:59;;;;;;;3.78;1.85;;;0.80;1.00;;;;;;5060967;28;20402;-62
2024/01/08 11:52:29;;;;;;;4.78;1.90;;;0.70;4.70;;;;;;5062473;28;20064;-63
2024/01/08 11:54:55;;;;;;;4.60;1.50;;;0.70;2.80;;;;;;5061230;28;20036;-62
2024/01/08 11:57:24;;;;;;;3.58;1.80;;;0.80;7.40;;;;;;5064455;28;20055;-63
2024/01/08 11:59:50;;;;;;;8.13;2.10;;;0.80;4.70;;;;;;5064292;28;20040;-63
2024/01/08 12:02:23;;;;;;;4.97;2.15;;;0.70;1.00;;;;;;5059576;28;20611;-63
2024/01/08 12:05:00;;;;;;;3.30;2.10;;;0.60;3.20;;;;;;5064072;28;20044;-62
2024/01/08 12:07:29;;;;;;;2.50;1.92;;;0.60;6.70;;;;;;5080015;28;20048;-63
2024/01/08 12:09:57;;;;;;;6.03;1.90;;;0.60;3.80;;;;;;5082451;28;20402;-63
2024/01/08 12:12:24;;;;;;;6.80;1.83;;;0.70;3.60;;;;;;5065258;28;20522;-62
2024/01/08 12:14:51;;;;;;;3.90;1.65;;;0.60;2.10;;;;;;5062393;28;20387;-62
2024/01/08 12:17:18;;;;;;;6.53;2.10;;;0.70;3.50;;;;;;5062367;28;20453;-63
2024/01/08 12:19:52;;;;;;;2.78;1.40;;;0.90;4.60;;;;;;5075420;28;20041;-62
2024/01/08 12:22:34;;;;;;;3.03;1.83;;;1.00;5.30;;;;;;5044902;28;20504;-63
2024/01/08 12:25:00;;;;;;;4.13;1.70;;;1.00;1.00;;;;;;5042752;28;20044;-62
2024/01/08 12:27:30;;;;;;;4.68;1.52;;;0.90;1.00;;;;;;5043694;28;20052;-62
2024/01/08 12:29:57;;;;;;;3.25;1.73;;;0.80;1.00;;;;;;5056111;28;20422;-62
2024/01/08 12:32:24;;;;;;;4.57;1.42;;;0.70;1.00;;;;;;5058805;28;20483;-62
2024/01/08 12:34:50;;;;;;;6.20;1.77;;;0.60;3.10;;;;;;5079263;28;20044;-62
2024/01/08 12:37:18;;;;;;;3.00;2.25;;;0.60;6.40;;;;;;5063364;28;20119;-62
2024/01/08 12:39:45;;;;;;;6.47;1.95;;;0.70;8.00;;;;;;5077913;28;20092;-61
2024/01/08 12:42:13;;;;;;;3.35;2.00;;;0.80;11.50;;;;;;5069076;28;20111;-62
2024/01/08 12:44:40;;;;;;;3.65;1.55;;;0.90;10.40;;;;;;5082059;28;20051;-62
2024/01/08 12:47:07;;;;;;;5.30;2.05;;;1.00;1.00;;;;;;5062556;28;20086;-62
2024/01/08 12:49:34;;;;;;;3.30;1.63;;;1.00;1.00;;;;;;5058219;28;20044;-62